Time;durP1;ratioP1;P1;durP2;ratioP2;P2;SDS_P1;SDS_P2;PMS_P1;PMS_P2;Temp;Humidity;BMP_temperature;BMP_pressure;BME280_temperature;BME280_humidity;BME280_pressure;Samples;Min_cycle;Max_cycle;Signal;HPM_P1;HPM_P2
2023/04/10 00:02:17;;;;;;;;;;;8.90;95.10;;;;;;5114231;27;19907;-67
2023/04/10 00:04:43;;;;;;;;;;;8.80;95.00;;;;;;5114369;27;19927;-67
2023/04/10 00:07:08;;;;;;;;;;;8.80;95.00;;;;;;5114502;28;20423;-67
2023/04/10 00:09:34;;;;;;;;;;;8.80;95.10;;;;;;5114692;27;20284;-67
2023/04/10 00:11:59;;;;;;;;;;;8.80;95.10;;;;;;5114180;27;19916;-67
2023/04/10 00:14:25;;;;;;;;;;;8.80;95.10;;;;;;5114660;27;19912;-67
2023/04/10 00:16:50;;;;;;;;;;;8.80;95.10;;;;;;5114668;28;19994;-67
2023/04/10 00:19:16;;;;;;;;;;;8.80;95.10;;;;;;5114521;27;19927;-67
2023/04/10 00:21:41;;;;;;;;;;;8.70;95.00;;;;;;5112939;28;19915;-67
2023/04/10 00:24:07;;;;;;;;;;;8.70;95.10;;;;;;5114140;27;19961;-67
2023/04/10 00:26:34;;;;;;;;;;;8.70;95.10;;;;;;5114665;27;19943;-67
2023/04/10 00:28:59;;;;;;;;;;;8.70;95.10;;;;;;5114317;27;19940;-67
2023/04/10 00:31:25;;;;;;;;;;;8.70;95.10;;;;;;5113938;27;19916;-67
2023/04/10 00:33:50;;;;;;;;;;;8.70;95.10;;;;;;5114191;27;19974;-67
2023/04/10 00:36:17;;;;;;;;;;;8.70;95.10;;;;;;5114158;27;19919;-67
2023/04/10 00:38:42;;;;;;;;;;;8.70;95.10;;;;;;5114371;27;20292;-67
2023/04/10 00:41:08;;;;;;;;;;;8.60;95.10;;;;;;5114113;27;19912;-67
2023/04/10 00:43:33;;;;;;;;;;;8.60;95.00;;;;;;5114063;27;20013;-67
2023/04/10 00:45:59;;;;;;;;;;;8.60;95.10;;;;;;5113235;27;19912;-67
2023/04/10 00:48:25;;;;;;;;;;;8.60;95.10;;;;;;5108996;28;20031;-67
2023/04/10 00:50:50;;;;;;;;;;;8.60;95.10;;;;;;5110977;28;19912;-67
2023/04/10 00:53:16;;;;;;;;;;;8.60;95.00;;;;;;5110552;28;19923;-67
2023/04/10 00:55:42;;;;;;;;;;;8.60;95.00;;;;;;5106355;27;19914;-67
2023/04/10 00:58:10;;;;;;;;;;;8.50;95.10;;;;;;5100243;28;20273;-67
2023/04/10 01:00:35;;;;;;;;;;;8.50;95.10;;;;;;5109867;28;19980;-67
2023/04/10 01:03:01;;;;;;;;;;;8.50;95.10;;;;;;5110212;28;19912;-67
2023/04/10 01:05:32;;;;;;;;;;;8.50;95.20;;;;;;5110723;28;19912;-67
2023/04/10 01:07:57;;;;;;;;;;;8.50;95.10;;;;;;5110752;28;19912;-67
2023/04/10 01:10:46;;;;;;;;;;;8.50;95.10;;;;;;5111000;28;19919;-67
2023/04/10 01:13:29;;;;;;;;;;;8.40;95.10;;;;;;5110217;28;19912;-67
2023/04/10 01:15:58;;;;;;;;;;;8.40;95.10;;;;;;5110667;28;19986;-67
2023/04/10 01:18:37;;;;;;;;;;;8.40;95.10;;;;;;5110182;28;19912;-67
2023/04/10 01:21:04;;;;;;;;;;;8.40;95.20;;;;;;5110930;28;19970;-67
2023/04/10 01:23:30;;;;;;;;;;;8.40;95.10;;;;;;5110664;27;19935;-67
2023/04/10 01:25:58;;;;;;;;;;;8.40;95.10;;;;;;5110559;28;20395;-67
2023/04/10 01:28:27;;;;;;;;;;;8.40;95.10;;;;;;5108985;28;19912;-67
2023/04/10 01:30:57;;;;;;;;;;;8.40;95.10;;;;;;5105824;28;19918;-67
2023/04/10 01:33:25;;;;;;;;;;;8.30;95.10;;;;;;5088007;28;19916;-67
2023/04/10 01:35:56;;;;;;;;;;;8.30;95.10;;;;;;5089728;28;19912;-67
2023/04/10 01:38:23;;;;;;;;;;;8.30;95.10;;;;;;5109115;28;19912;-67
2023/04/10 01:40:51;;;;;;;;;;;8.30;95.10;;;;;;5109853;28;19918;-67
2023/04/10 01:43:17;;;;;;;;;;;8.30;95.10;;;;;;5109156;28;19977;-67
2023/04/10 01:45:43;;;;;;;;;;;8.30;95.10;;;;;;5108327;28;19907;-67
2023/04/10 01:48:10;;;;;;;;;;;8.30;95.10;;;;;;5108564;28;19912;-67
2023/04/10 01:50:35;;;;;;;;;;;8.20;95.10;;;;;;5108825;27;19908;-67
2023/04/10 01:53:03;;;;;;;;;;;8.20;95.10;;;;;;5108516;28;19922;-67
2023/04/10 01:55:30;;;;;;;;;;;8.20;95.10;;;;;;5108656;28;19951;-67
2023/04/10 01:57:56;;;;;;;;;;;8.20;95.10;;;;;;5102327;28;19916;-67
2023/04/10 02:00:22;;;;;;;;;;;8.20;95.10;;;;;;5108297;28;20418;-67
2023/04/10 02:02:47;;;;;;;;;;;8.20;95.10;;;;;;5108098;28;20006;-67
2023/04/10 02:05:14;;;;;;;;;;;8.20;95.10;;;;;;5108479;28;20287;-67
2023/04/10 02:07:44;;;;;;;;;;;8.10;95.10;;;;;;5109251;28;20664;-67
2023/04/10 02:10:10;;;;;;;;;;;8.10;95.10;;;;;;5109489;28;19962;-67
2023/04/10 02:12:37;;;;;;;;;;;8.10;95.10;;;;;;5109220;28;19958;-67
2023/04/10 02:15:05;;;;;;;;;;;8.10;95.10;;;;;;5109059;28;19912;-66
2023/04/10 02:17:32;;;;;;;;;;;8.10;95.10;;;;;;5107884;28;20039;-67
2023/04/10 02:19:58;;;;;;;;;;;8.00;95.40;;;;;;5107558;28;20575;-67
2023/04/10 02:22:24;;;;;;;;;;;8.00;95.10;;;;;;5108742;28;19912;-67
2023/04/10 02:24:50;;;;;;;;;;;8.00;95.10;;;;;;5109049;28;19998;-67
2023/04/10 02:27:25;;;;;;;;;;;8.00;95.10;;;;;;5108841;28;20350;-67
2023/04/10 02:29:51;;;;;;;;;;;8.00;95.10;;;;;;5109080;28;19918;-67
2023/04/10 02:32:18;;;;;;;;;;;8.00;95.20;;;;;;5106922;28;20003;-67
2023/04/10 02:34:43;;;;;;;;;;;8.00;95.10;;;;;;5108949;28;19915;-67
2023/04/10 02:37:09;;;;;;;;;;;7.90;95.10;;;;;;5108755;28;20357;-67
2023/04/10 02:39:35;;;;;;;;;;;8.00;95.30;;;;;;5109172;28;19911;-67
2023/04/10 02:42:01;;;;;;;;;;;8.00;95.10;;;;;;5108837;28;19939;-67
2023/04/10 02:44:27;;;;;;;;;;;7.90;95.00;;;;;;5109263;28;20000;-67
2023/04/10 02:46:52;;;;;;;;;;;7.90;95.10;;;;;;5108701;28;20057;-67
2023/04/10 02:49:17;;;;;;;;;;;7.90;95.10;;;;;;5108778;28;20002;-67
2023/04/10 02:51:43;;;;;;;;;;;7.90;95.10;;;;;;5107104;28;19924;-67
2023/04/10 02:54:09;;;;;;;;;;;7.90;95.10;;;;;;5108535;28;19919;-67
2023/04/10 02:56:34;;;;;;;;;;;7.90;95.10;;;;;;5103843;28;19980;-67
2023/04/10 02:59:00;;;;;;;;;;;7.90;95.10;;;;;;5107027;28;19964;-67
2023/04/10 03:01:26;;;;;;;;;;;7.80;95.10;;;;;;5108325;28;20002;-67
2023/04/10 03:03:51;;;;;;;;;;;7.90;95.10;;;;;;5108152;28;19923;-67
2023/04/10 03:06:17;;;;;;;;;;;7.80;95.00;;;;;;5108333;28;20002;-67
2023/04/10 03:08:42;;;;;;;;;;;7.80;95.10;;;;;;5108646;28;20679;-67
2023/04/10 03:11:08;;;;;;;;;;;7.80;95.10;;;;;;5107491;28;19912;-67
2023/04/10 03:13:33;;;;;;;;;;;7.80;95.00;;;;;;5108329;28;20576;-67
2023/04/10 03:15:59;;;;;;;;;;;7.80;95.00;;;;;;5108260;28;19912;-67
2023/04/10 03:18:25;;;;;;;;;;;7.80;95.10;;;;;;5107063;28;20471;-67
2023/04/10 03:20:50;;;;;;;;;;;7.80;95.00;;;;;;5108148;28;20391;-67
2023/04/10 03:23:16;;;;;;;;;;;7.70;95.10;;;;;;5107938;28;19908;-67
2023/04/10 03:25:42;;;;;;;;;;;7.80;95.10;;;;;;5108162;28;19908;-67
2023/04/10 03:28:07;;;;;;;;;;;7.70;95.10;;;;;;5108401;28;19912;-67
2023/04/10 03:30:35;;;;;;;;;;;7.70;95.10;;;;;;5108549;28;19919;-67
2023/04/10 03:33:01;;;;;;;;;;;7.70;95.10;;;;;;5107894;28;19915;-67
2023/04/10 03:35:26;;;;;;;;;;;7.70;95.10;;;;;;5108115;28;20011;-67
2023/04/10 03:37:52;;;;;;;;;;;7.70;95.10;;;;;;5107698;28;19919;-67
2023/04/10 03:40:17;;;;;;;;;;;7.70;95.10;;;;;;5108067;28;19930;-67
2023/04/10 03:42:43;;;;;;;;;;;7.70;95.20;;;;;;5107622;28;20684;-67
2023/04/10 03:45:09;;;;;;;;;;;7.60;95.10;;;;;;5108223;28;19919;-67
2023/04/10 03:47:35;;;;;;;;;;;7.60;95.10;;;;;;5108098;28;19919;-67
2023/04/10 03:50:00;;;;;;;;;;;7.60;95.10;;;;;;5108034;28;19912;-67
2023/04/10 03:52:27;;;;;;;;;;;7.60;95.10;;;;;;5107650;28;19916;-67
2023/04/10 03:54:55;;;;;;;;;;;7.60;95.10;;;;;;5107717;28;19947;-67
2023/04/10 03:57:21;;;;;;;;;;;7.60;95.10;;;;;;5105850;28;19919;-67
2023/04/10 03:59:46;;;;;;;;;;;7.60;95.10;;;;;;5107272;28;19969;-67
2023/04/10 04:02:12;;;;;;;;;;;7.60;95.10;;;;;;5107646;28;19966;-67
2023/04/10 04:04:38;;;;;;;;;;;7.60;95.20;;;;;;5107441;28;19912;-67
2023/04/10 04:07:03;;;;;;;;;;;7.50;95.10;;;;;;5107748;28;19988;-67
2023/04/10 04:09:29;;;;;;;;;;;7.50;95.20;;;;;;5107818;28;20337;-67
2023/04/10 04:11:55;;;;;;;;;;;7.50;95.10;;;;;;5107219;28;19922;-67
2023/04/10 04:14:21;;;;;;;;;;;7.50;95.10;;;;;;5106567;28;20010;-67
2023/04/10 04:16:46;;;;;;;;;;;7.50;95.10;;;;;;5107682;28;20006;-67
2023/04/10 04:19:12;;;;;;;;;;;7.50;95.10;;;;;;5107864;28;19920;-67
2023/04/10 04:21:37;;;;;;;;;;;7.50;95.10;;;;;;5107797;28;19908;-67
2023/04/10 04:24:03;;;;;;;;;;;7.50;95.10;;;;;;5111553;28;19911;-67
2023/04/10 04:26:29;;;;;;;;;;;7.50;95.00;;;;;;5111694;28;19920;-67
2023/04/10 04:28:54;;;;;;;;;;;7.50;95.00;;;;;;5111327;28;20372;-67
2023/04/10 04:31:20;;;;;;;;;;;7.50;95.00;;;;;;5103377;28;19912;-67
2023/04/10 04:33:45;;;;;;;;;;;7.50;95.00;;;;;;5091159;28;19912;-66
2023/04/10 04:36:11;;;;;;;;;;;7.40;94.90;;;;;;5092128;28;19908;-67
2023/04/10 04:38:37;;;;;;;;;;;7.40;95.00;;;;;;5111462;28;19970;-67
2023/04/10 04:41:02;;;;;;;;;;;7.40;95.00;;;;;;5111358;28;20018;-67
2023/04/10 04:43:28;;;;;;;;;;;7.40;95.00;;;;;;5110981;28;19912;-67
2023/04/10 04:45:53;;;;;;;;;;;7.40;95.00;;;;;;5111272;28;19912;-67
2023/04/10 04:48:19;;;;;;;;;;;7.40;95.00;;;;;;5111265;28;20437;-67
2023/04/10 04:50:45;;;;;;;;;;;7.40;95.00;;;;;;5110942;28;19919;-66
2023/04/10 04:53:10;;;;;;;;;;;7.40;95.00;;;;;;5110618;28;19916;-66
2023/04/10 04:55:36;;;;;;;;;;;7.40;95.00;;;;;;5111082;27;19919;-66
2023/04/10 04:58:01;;;;;;;;;;;7.40;94.90;;;;;;5110379;28;19964;-66
2023/04/10 05:00:27;;;;;;;;;;;7.40;95.00;;;;;;5110676;28;19943;-66
2023/04/10 05:02:52;;;;;;;;;;;7.40;94.90;;;;;;5110570;28;20659;-66
2023/04/10 05:05:18;;;;;;;;;;;7.30;95.00;;;;;;5110888;28;19912;-66
2023/04/10 05:07:43;;;;;;;;;;;7.30;94.90;;;;;;5110679;28;19912;-66
2023/04/10 05:10:09;;;;;;;;;;;7.30;94.90;;;;;;5110905;28;20022;-66
2023/04/10 05:12:35;;;;;;;;;;;7.30;94.90;;;;;;5110364;28;19968;-66
2023/04/10 05:15:00;;;;;;;;;;;7.30;94.90;;;;;;5110129;28;19919;-66
2023/04/10 05:17:26;;;;;;;;;;;7.30;94.80;;;;;;5110563;28;20399;-66
2023/04/10 05:19:51;;;;;;;;;;;7.30;94.80;;;;;;5110271;28;19962;-66
2023/04/10 05:22:17;;;;;;;;;;;7.30;94.80;;;;;;5110238;28;19919;-66
2023/04/10 05:24:44;;;;;;;;;;;7.30;94.80;;;;;;5109657;28;21441;-66
2023/04/10 05:27:09;;;;;;;;;;;7.30;94.80;;;;;;5110471;28;19959;-66
2023/04/10 05:29:35;;;;;;;;;;;7.30;94.80;;;;;;5109887;27;19924;-66
2023/04/10 05:32:00;;;;;;;;;;;7.30;94.80;;;;;;5109951;28;19922;-66
2023/04/10 05:34:26;;;;;;;;;;;7.30;94.80;;;;;;5109709;28;19912;-66
2023/04/10 05:36:51;;;;;;;;;;;7.30;94.80;;;;;;5110055;28;19967;-66
2023/04/10 05:39:17;;;;;;;;;;;7.30;94.80;;;;;;5110248;28;19911;-66
2023/04/10 05:41:42;;;;;;;;;;;7.30;94.80;;;;;;5109843;28;20663;-66
2023/04/10 05:44:08;;;;;;;;;;;7.30;94.70;;;;;;5109976;28;20373;-66
2023/04/10 05:46:33;;;;;;;;;;;7.30;94.80;;;;;;5109988;28;20439;-66
2023/04/10 05:48:59;;;;;;;;;;;7.30;94.70;;;;;;5110156;28;19930;-66
2023/04/10 05:51:25;;;;;;;;;;;7.30;94.70;;;;;;5109732;28;19916;-66
2023/04/10 05:53:50;;;;;;;;;;;7.30;94.70;;;;;;5110010;28;19907;-66
2023/04/10 05:56:16;;;;;;;;;;;7.30;94.70;;;;;;5104759;28;19916;-66
2023/04/10 05:58:41;;;;;;;;;;;7.30;94.70;;;;;;5109505;28;19908;-66
2023/04/10 06:01:07;;;;;;;;;;;7.30;94.90;;;;;;5109809;28;19998;-66
2023/04/10 06:03:32;;;;;;;;;;;7.30;94.70;;;;;;5109276;28;19918;-66
2023/04/10 06:05:59;;;;;;;;;;;7.30;94.60;;;;;;5109912;28;20522;-66
2023/04/10 06:08:24;;;;;;;;;;;7.40;94.60;;;;;;5108234;28;20475;-66
2023/04/10 06:10:50;;;;;;;;;;;7.40;94.60;;;;;;5109879;28;19980;-66
2023/04/10 06:13:16;;;;;;;;;;;7.40;94.50;;;;;;5109326;28;20339;-66
2023/04/10 06:15:41;;;;;;;;;;;7.40;94.60;;;;;;5109550;28;20427;-66
2023/04/10 06:18:07;;;;;;;;;;;7.40;94.50;;;;;;5109414;28;19923;-66
2023/04/10 06:20:32;;;;;;;;;;;7.40;94.50;;;;;;5109214;28;19973;-66
2023/04/10 06:22:58;;;;;;;;;;;7.50;94.50;;;;;;5109213;28;19912;-66
2023/04/10 06:25:24;;;;;;;;;;;7.60;94.40;;;;;;5109246;28;19919;-66
2023/04/10 06:27:50;;;;;;;;;;;7.70;94.40;;;;;;5107666;28;19923;-66
2023/04/10 06:30:15;;;;;;;;;;;7.70;94.30;;;;;;5109130;28;19912;-66
2023/04/10 06:32:41;;;;;;;;;;;7.80;94.20;;;;;;5108595;28;19915;-66
2023/04/10 06:35:06;;;;;;;;;;;7.80;94.10;;;;;;5109032;28;20307;-66
2023/04/10 06:37:32;;;;;;;;;;;7.90;94.10;;;;;;5109047;28;19908;-66
2023/04/10 06:40:01;;;;;;;;;;;7.90;94.00;;;;;;5109134;28;19931;-66
2023/04/10 06:42:27;;;;;;;;;;;8.00;94.00;;;;;;5108728;28;19981;-66
2023/04/10 06:44:52;;;;;;;;;;;7.90;94.00;;;;;;5107775;28;19955;-66
2023/04/10 06:47:17;;;;;;;;;;;8.00;94.00;;;;;;5108660;28;19933;-66
2023/04/10 06:49:43;;;;;;;;;;;8.00;93.90;;;;;;5107014;28;19918;-66
2023/04/10 06:52:10;;;;;;;;;;;8.00;94.10;;;;;;5107867;28;19916;-66
2023/04/10 06:54:35;;;;;;;;;;;8.00;93.80;;;;;;5108197;28;19990;-66
2023/04/10 06:57:01;;;;;;;;;;;8.10;93.80;;;;;;5103241;28;20006;-66
2023/04/10 06:59:27;;;;;;;;;;;8.10;94.10;;;;;;5107165;28;20030;-65
2023/04/10 07:01:53;;;;;;;;;;;8.20;93.80;;;;;;5107339;28;19919;-66
2023/04/10 07:04:19;;;;;;;;;;;8.20;93.70;;;;;;5107534;28;19912;-66
2023/04/10 07:06:45;;;;;;;;;;;8.30;93.70;;;;;;5106152;27;19923;-66
2023/04/10 07:09:10;;;;;;;;;;;8.30;93.50;;;;;;5108328;27;19912;-66
2023/04/10 07:11:36;;;;;;;;;;;8.40;93.50;;;;;;5117949;27;19922;-66
2023/04/10 07:14:01;;;;;;;;;;;8.40;93.40;;;;;;5128578;27;19915;-66
2023/04/10 07:16:28;;;;;;;;;;;8.50;93.30;;;;;;5128950;27;19969;-66
2023/04/10 07:18:53;;;;;;;;;;;8.60;93.10;;;;;;5128776;27;19958;-66
2023/04/10 07:21:19;;;;;;;;;;;8.60;93.10;;;;;;5114953;27;20698;-66
2023/04/10 07:23:44;;;;;;;;;;;8.70;93.00;;;;;;5107635;28;19931;-66
2023/04/10 07:26:10;;;;;;;;;;;8.80;93.10;;;;;;5107994;28;19908;-66
2023/04/10 07:28:37;;;;;;;;;;;8.90;93.10;;;;;;5108574;28;19912;-66
2023/04/10 07:31:02;;;;;;;;;;;8.90;93.10;;;;;;5107942;28;20249;-66
2023/04/10 07:33:28;;;;;;;;;;;9.00;93.10;;;;;;5107814;28;19937;-66
2023/04/10 07:35:53;;;;;;;;;;;9.00;93.00;;;;;;5108269;28;20107;-66
2023/04/10 07:38:19;;;;;;;;;;;9.10;93.00;;;;;;5107847;28;19949;-66
2023/04/10 07:40:45;;;;;;;;;;;9.20;93.00;;;;;;5110758;28;20016;-66
2023/04/10 07:43:10;;;;;;;;;;;9.30;93.00;;;;;;5107453;28;19968;-66
2023/04/10 07:45:36;;;;;;;;;;;9.30;92.80;;;;;;5106610;28;19946;-66
2023/04/10 07:48:02;;;;;;;;;;;9.30;92.60;;;;;;5107723;28;20020;-66
2023/04/10 07:50:29;;;;;;;;;;;9.40;92.60;;;;;;5107929;28;19953;-66
2023/04/10 07:52:54;;;;;;;;;;;9.50;92.70;;;;;;5107635;28;20261;-66
2023/04/10 07:55:20;;;;;;;;;;;9.60;92.70;;;;;;5107675;28;19990;-66
2023/04/10 07:57:45;;;;;;;;;;;9.60;92.50;;;;;;5105312;28;19919;-66
2023/04/10 08:00:11;;;;;;;;;;;9.70;92.50;;;;;;5110634;28;19919;-66
2023/04/10 08:02:37;;;;;;;;;;;9.70;92.40;;;;;;5110448;28;19915;-66
2023/04/10 08:05:02;;;;;;;;;;;9.70;92.40;;;;;;5110849;28;19998;-66
2023/04/10 08:07:28;;;;;;;;;;;9.70;92.40;;;;;;5112022;28;19918;-66
2023/04/10 08:09:53;;;;;;;;;;;9.80;92.50;;;;;;5111962;28;19974;-66
2023/04/10 08:12:19;;;;;;;;;;;9.80;92.40;;;;;;5111605;28;19919;-66
2023/04/10 08:14:44;;;;;;;;;;;9.80;92.40;;;;;;5110495;28;19993;-66
2023/04/10 08:17:13;;;;;;;;;;;9.80;92.50;;;;;;5111915;28;19916;-66
2023/04/10 08:19:41;;;;;;;;;;;9.90;92.40;;;;;;5111772;28;19953;-66
2023/04/10 08:22:07;;;;;;;;;;;9.90;92.40;;;;;;5111638;28;19915;-66
2023/04/10 08:24:32;;;;;;;;;;;10.00;92.30;;;;;;5112092;28;19912;-66
2023/04/10 08:26:58;;;;;;;;;;;10.10;92.60;;;;;;5111632;28;19985;-66
2023/04/10 08:29:23;;;;;;;;;;;10.10;92.00;;;;;;5111805;28;20852;-66
2023/04/10 08:31:49;;;;;;;;;;;10.20;92.20;;;;;;5098957;27;19924;-66
2023/04/10 08:34:14;;;;;;;;;;;10.30;92.00;;;;;;5091139;28;19912;-66
2023/04/10 08:36:40;;;;;;;;;;;10.40;92.00;;;;;;5095976;28;20029;-66
2023/04/10 08:39:05;;;;;;;;;;;10.40;91.90;;;;;;5111416;28;19939;-66
2023/04/10 08:41:31;;;;;;;;;;;10.50;91.70;;;;;;5111293;28;20559;-66
2023/04/10 08:43:56;;;;;;;;;;;10.60;91.70;;;;;;5109816;28;19911;-66
2023/04/10 08:46:23;;;;;;;;;;;10.60;91.80;;;;;;5111247;28;19918;-66
2023/04/10 08:49:00;;;;;;;;;;;10.70;91.50;;;;;;5111345;28;19935;-66
2023/04/10 08:51:30;;;;;;;;;;;10.80;91.50;;;;;;5111172;28;19999;-66
2023/04/10 08:53:57;;;;;;;;;;;10.80;91.30;;;;;;5110836;28;19912;-66
2023/04/10 08:56:23;;;;;;;;;;;10.90;91.40;;;;;;5106955;28;19962;-66
2023/04/10 08:58:50;;;;;;;;;;;11.00;91.30;;;;;;5110733;28;19993;-66
2023/04/10 09:01:16;;;;;;;;;;;11.10;91.20;;;;;;5111064;28;19912;-66
2023/04/10 09:03:41;;;;;;;;;;;11.10;91.10;;;;;;5111047;28;19912;-66
2023/04/10 09:06:07;;;;;;;;;;;11.20;91.10;;;;;;5110622;28;19908;-66
2023/04/10 09:08:33;;;;;;;;;;;11.20;90.90;;;;;;5110251;28;19965;-66
2023/04/10 09:10:59;;;;;;;;;;;11.30;91.10;;;;;;5110981;28;20023;-66
2023/04/10 09:13:43;;;;;;;;;;;11.30;90.70;;;;;;5110239;28;19915;-66
2023/04/10 09:16:10;;;;;;;;;;;11.30;90.70;;;;;;5110108;28;19989;-66
2023/04/10 09:18:41;;;;;;;;;;;11.40;90.70;;;;;;5108333;28;19950;-66
2023/04/10 09:21:07;;;;;;;;;;;11.40;90.80;;;;;;5109934;28;19966;-66
2023/04/10 09:23:33;;;;;;;;;;;11.50;90.60;;;;;;5109383;28;19911;-66
2023/04/10 09:25:58;;;;;;;;;;;11.50;90.60;;;;;;5109742;28;20415;-67
2023/04/10 09:28:24;;;;;;;;;;;11.50;90.40;;;;;;5109598;28;19911;-66
2023/04/10 09:30:49;;;;;;;;;;;11.60;90.40;;;;;;5105813;28;19916;-66
2023/04/10 09:33:21;;;;;;;;;;;11.60;90.30;;;;;;5089134;28;19912;-67
2023/04/10 09:35:47;;;;;;;;;;;11.70;90.40;;;;;;5089300;28;19990;-66
2023/04/10 09:38:13;;;;;;;;;;;11.70;90.30;;;;;;5105668;28;20006;-66
2023/04/10 09:40:38;;;;;;;;;;;11.80;90.40;;;;;;5109525;27;20002;-66
2023/04/10 09:43:15;;;;;;;;;;;11.80;90.20;;;;;;5109211;28;20654;-66
2023/04/10 09:45:47;;;;;;;;;;;11.90;90.10;;;;;;5109471;28;19919;-68
2023/04/10 09:48:13;;;;;;;;;;;11.90;90.00;;;;;;5109022;28;19916;-68
2023/04/10 09:50:42;;;;;;;;;;;12.00;90.00;;;;;;5109136;28;19918;-69
2023/04/10 09:53:09;;;;;;;;;;;12.00;89.50;;;;;;5108858;28;20352;-68
2023/04/10 09:55:35;;;;;;;;;;;12.10;89.90;;;;;;5108459;28;20284;-68
2023/04/10 09:58:01;;;;;;;;;;;12.10;88.90;;;;;;5103560;28;19947;-68
2023/04/10 10:00:27;;;;;;;;;;;12.10;89.20;;;;;;5107276;28;19918;-68
2023/04/10 10:02:54;;;;;;;;;;;12.20;88.90;;;;;;5108872;28;19912;-68
2023/04/10 10:05:21;;;;;;;;;;;12.20;88.90;;;;;;5109031;28;20361;-68
2023/04/10 10:07:48;;;;;;;;;;;12.30;89.00;;;;;;5109170;28;19908;-68
2023/04/10 10:10:13;;;;;;;;;;;12.40;88.70;;;;;;5108997;28;19916;-68
2023/04/10 10:12:50;;;;;;;;;;;12.40;88.90;;;;;;5108513;28;19969;-68
2023/04/10 10:15:27;;;;;;;;;;;12.40;88.70;;;;;;5108930;28;20414;-68
2023/04/10 10:17:53;;;;;;;;;;;12.50;88.80;;;;;;5108880;28;20589;-68
2023/04/10 10:20:20;;;;;;;;;;;12.50;88.30;;;;;;5108606;28;19920;-68
2023/04/10 10:22:48;;;;;;;;;;;12.60;87.90;;;;;;5108593;28;19937;-68
2023/04/10 10:25:13;;;;;;;;;;;12.70;87.60;;;;;;5108848;28;19912;-70
2023/04/10 10:27:40;;;;;;;;;;;12.70;87.80;;;;;;5108463;28;19916;-68
2023/04/10 10:30:06;;;;;;;;;;;12.70;87.20;;;;;;5108667;28;19951;-68
2023/04/10 10:32:33;;;;;;;;;;;12.80;87.50;;;;;;5088681;28;19916;-68
2023/04/10 10:35:00;;;;;;;;;;;12.80;88.10;;;;;;5088091;28;19912;-68
2023/04/10 10:37:27;;;;;;;;;;;12.90;87.90;;;;;;5099403;28;19940;-68
2023/04/10 10:39:59;;;;;;;;;;;12.90;87.50;;;;;;5108545;28;19912;-68
2023/04/10 10:42:30;;;;;;;;;;;12.90;87.20;;;;;;5108650;28;20011;-68
2023/04/10 10:44:56;;;;;;;;;;;13.00;86.40;;;;;;5109037;28;19990;-68
2023/04/10 10:47:23;;;;;;;;;;;13.00;86.70;;;;;;5107644;28;20447;-68
2023/04/10 10:49:52;;;;;;;;;;;13.10;86.40;;;;;;5108766;28;19912;-68
2023/04/10 10:52:56;;;;;;;;;;;13.20;86.10;;;;;;5108434;28;20531;-68
2023/04/10 10:55:23;;;;;;;;;;;13.30;85.80;;;;;;5065517;28;19920;-68
2023/04/10 10:57:52;;;;;;;;;;;13.40;86.00;;;;;;5044819;28;20294;-68
2023/04/10 11:00:18;;;;;;;;;;;13.40;86.90;;;;;;5073159;28;19912;-68
2023/04/10 11:02:44;;;;;;;;;;;13.50;87.10;;;;;;5086774;28;20264;-68
2023/04/10 11:05:09;;;;;;;;;;;13.60;86.90;;;;;;5103577;28;20002;-67
2023/04/10 11:07:54;;;;;;;;;;;13.70;86.10;;;;;;5108362;28;19935;-67
2023/04/10 11:10:40;;;;;;;;;;;13.70;87.30;;;;;;5106943;28;20376;-67
2023/04/10 11:13:18;;;;;;;;;;;13.90;85.70;;;;;;5108284;28;20057;-67
2023/04/10 11:15:44;;;;;;;;;;;14.00;86.30;;;;;;5107390;28;20356;-67
2023/04/10 11:18:10;;;;;;;;;;;14.00;86.10;;;;;;5108570;28;19916;-68
2023/04/10 11:20:56;;;;;;;;;;;14.00;86.20;;;;;;5107032;28;19973;-68
2023/04/10 11:23:22;;;;;;;;;;;14.10;85.80;;;;;;5108445;28;20372;-67
2023/04/10 11:25:52;;;;;;;;;;;14.10;84.60;;;;;;5108195;28;19939;-67
2023/04/10 11:28:44;;;;;;;;;;;14.20;86.00;;;;;;5108264;28;20356;-67
2023/04/10 11:31:22;;;;;;;;;;;14.30;85.70;;;;;;5104449;28;19916;-67
2023/04/10 11:33:48;;;;;;;;;;;14.40;86.50;;;;;;5108177;28;19912;-67
2023/04/10 11:36:16;;;;;;;;;;;14.40;86.30;;;;;;5106822;28;19912;-67
2023/04/10 11:38:52;;;;;;;;;;;14.40;85.10;;;;;;5108401;28;20396;-67
2023/04/10 11:41:17;;;;;;;;;;;14.40;87.20;;;;;;5106916;28;19911;-67
2023/04/10 11:43:43;;;;;;;;;;;14.50;86.80;;;;;;5108427;28;19969;-67
2023/04/10 11:46:09;;;;;;;;;;;14.50;86.90;;;;;;5107951;28;20333;-68
2023/04/10 11:48:35;;;;;;;;;;;14.60;86.50;;;;;;5108099;28;19955;-67
2023/04/10 11:51:07;;;;;;;;;;;14.60;86.50;;;;;;5107703;28;19912;-67
2023/04/10 11:53:33;;;;;;;;;;;14.60;86.30;;;;;;5106365;28;20034;-68
2023/04/10 11:55:59;;;;;;;;;;;14.70;85.20;;;;;;5105658;28;20019;-67
2023/04/10 11:58:25;;;;;;;;;;;14.80;86.10;;;;;;5105463;28;19919;-68
2023/04/10 12:00:58;;;;;;;;;;;14.80;85.50;;;;;;5108113;28;19958;-68
2023/04/10 12:03:53;;;;;;;;;;;14.90;84.80;;;;;;5107822;28;19935;-67
2023/04/10 12:06:19;;;;;;;;;;;14.90;85.90;;;;;;5098611;28;19911;-67
2023/04/10 12:08:46;;;;;;;;;;;15.00;85.30;;;;;;5108103;28;19911;-67
2023/04/10 12:11:12;;;;;;;;;;;15.00;85.40;;;;;;5108066;28;19912;-67
2023/04/10 12:13:37;;;;;;;;;;;15.00;86.10;;;;;;5107734;28;20293;-68
2023/04/10 12:16:05;;;;;;;;;;;15.10;85.50;;;;;;5107142;28;19919;-67
2023/04/10 12:18:31;;;;;;;;;;;15.10;85.30;;;;;;5106945;28;20547;-67
2023/04/10 12:20:57;;;;;;;;;;;15.20;86.00;;;;;;5107276;28;19958;-68
2023/04/10 12:23:23;;;;;;;;;;;15.20;86.10;;;;;;5105623;28;19966;-67
2023/04/10 12:25:49;;;;;;;;;;;15.30;85.40;;;;;;5107344;28;19944;-67
2023/04/10 12:28:21;;;;;;;;;;;15.30;84.70;;;;;;5108231;28;19919;-67
2023/04/10 12:30:48;;;;;;;;;;;15.30;85.70;;;;;;5104529;28;19920;-67
2023/04/10 12:33:18;;;;;;;;;;;15.40;85.20;;;;;;5087343;28;20548;-67
2023/04/10 12:35:44;;;;;;;;;;;15.40;85.50;;;;;;5087599;28;20011;-67
2023/04/10 12:38:10;;;;;;;;;;;15.50;85.50;;;;;;5103772;28;20011;-67
2023/04/10 12:40:37;;;;;;;;;;;15.50;85.40;;;;;;5106326;28;20408;-69
2023/04/10 12:43:03;;;;;;;;;;;15.50;85.50;;;;;;5108866;28;19915;-68
2023/04/10 12:45:44;;;;;;;;;;;15.60;85.40;;;;;;5110326;28;20002;-67
2023/04/10 12:48:09;;;;;;;;;;;15.60;85.20;;;;;;5111840;28;19915;-67
2023/04/10 12:50:48;;;;;;;;;;;15.70;85.10;;;;;;5111539;28;19908;-67
2023/04/10 12:53:13;;;;;;;;;;;15.70;85.30;;;;;;5111032;28;19916;-67
2023/04/10 12:55:41;;;;;;;;;;;15.70;85.40;;;;;;5110766;27;19916;-68
2023/04/10 12:58:16;;;;;;;;;;;15.80;85.80;;;;;;5110242;28;19916;-68
2023/04/10 13:00:42;;;;;;;;;;;15.80;85.80;;;;;;5110623;28;19960;-68
2023/04/10 13:03:08;;;;;;;;;;;15.90;85.00;;;;;;5110309;28;19928;-68
2023/04/10 13:05:33;;;;;;;;;;;15.90;85.20;;;;;;5110466;28;19947;-68
2023/04/10 13:07:59;;;;;;;;;;;15.90;83.20;;;;;;5110136;28;20046;-68
2023/04/10 13:10:24;;;;;;;;;;;15.90;85.10;;;;;;5110401;28;19919;-68
2023/04/10 13:12:50;;;;;;;;;;;15.90;86.00;;;;;;5109654;28;19916;-68
2023/04/10 13:15:15;;;;;;;;;;;15.90;85.20;;;;;;5109758;28;19927;-67
2023/04/10 13:17:41;;;;;;;;;;;15.90;83.90;;;;;;5107746;28;19972;-67
2023/04/10 13:20:08;;;;;;;;;;;16.00;85.50;;;;;;5109916;28;19916;-68
2023/04/10 13:22:33;;;;;;;;;;;16.00;83.70;;;;;;5106024;28;19949;-67
2023/04/10 13:24:59;;;;;;;;;;;16.00;83.30;;;;;;5108756;28;19915;-67
2023/04/10 13:27:24;;;;;;;;;;;16.00;82.00;;;;;;5110362;28;19912;-68
2023/04/10 13:29:50;;;;;;;;;;;16.00;82.50;;;;;;5109353;28;21930;-68
2023/04/10 13:32:15;;;;;;;;;;;16.00;82.80;;;;;;5113328;27;20447;-68
2023/04/10 13:34:41;;;;;;;;;;;16.00;81.70;;;;;;5110616;27;19915;-67
2023/04/10 13:37:10;;;;;;;;;;;16.10;83.00;;;;;;5109726;28;19912;-68
2023/04/10 13:39:35;;;;;;;;;;;16.10;82.80;;;;;;5109946;27;19908;-68
2023/04/10 13:42:01;;;;;;;;;;;16.10;81.20;;;;;;5109566;28;19922;-67
2023/04/10 13:44:27;;;;;;;;;;;16.00;82.20;;;;;;5108153;28;19954;-68
2023/04/10 13:46:52;;;;;;;;;;;16.10;82.90;;;;;;5103445;27;19969;-68
2023/04/10 13:49:19;;;;;;;;;;;16.10;83.00;;;;;;5111126;27;19916;-68
2023/04/10 13:51:44;;;;;;;;;;;16.10;83.20;;;;;;5138462;27;19947;-68
2023/04/10 13:54:10;;;;;;;;;;;16.10;83.20;;;;;;5108618;28;20025;-68
2023/04/10 13:56:36;;;;;;;;;;;16.10;83.30;;;;;;5107323;28;19951;-67
2023/04/10 13:59:01;;;;;;;;;;;16.10;82.60;;;;;;5109543;28;19958;-68
2023/04/10 14:01:27;;;;;;;;;;;16.10;82.00;;;;;;5109987;28;19959;-68
2023/04/10 14:03:52;;;;;;;;;;;16.10;83.70;;;;;;5109204;28;19916;-68
2023/04/10 14:06:18;;;;;;;;;;;16.10;83.30;;;;;;5109822;28;19965;-68
2023/04/10 14:08:43;;;;;;;;;;;16.10;83.80;;;;;;5109945;28;19947;-68
2023/04/10 14:11:09;;;;;;;;;;;16.10;83.80;;;;;;5110108;28;20242;-68
2023/04/10 14:13:35;;;;;;;;;;;16.10;81.60;;;;;;5109424;28;19911;-68
2023/04/10 14:16:00;;;;;;;;;;;16.10;83.10;;;;;;5109601;28;19916;-68
2023/04/10 14:18:26;;;;;;;;;;;16.10;83.50;;;;;;5109431;28;19919;-68
2023/04/10 14:20:51;;;;;;;;;;;16.10;83.70;;;;;;5108338;28;19920;-68
2023/04/10 14:23:17;;;;;;;;;;;16.00;83.70;;;;;;5109224;28;19941;-68